Time;durP1;ratioP1;P1;durP2;ratioP2;P2;SDS_P1;SDS_P2;PMS_P1;PMS_P2;Temp;Humidity;BMP_temperature;BMP_pressure;BME280_temperature;BME280_humidity;BME280_pressure;Samples;Min_cycle;Max_cycle;Signal;HPM_P1;HPM_P2
2021/07/03 00:01:28;;;;;;;6.35;3.95;;;;;;;;;;5019584;28;20401;-87
2021/07/03 00:03:55;;;;;;;4.82;3.92;;;;;;;;;;5016254;28;20419;-87
2021/07/03 00:06:22;;;;;;;6.90;4.10;;;;;;;;;;5020021;28;20849;-87
2021/07/03 00:08:50;;;;;;;5.57;3.80;;;;;;;;;;5020233;28;20413;-87
2021/07/03 00:11:17;;;;;;;4.57;3.60;;;;;;;;;;5017768;28;20877;-87
2021/07/03 00:13:44;;;;;;;4.32;3.35;;;;;;;;;;5017204;28;20898;-87
2021/07/03 00:16:11;;;;;;;5.60;3.13;;;;;;;;;;5019084;28;20759;-87
2021/07/03 00:18:37;;;;;;;3.35;3.00;;;;;;;;;;5018271;28;20405;-87
2021/07/03 00:21:04;;;;;;;3.97;2.80;;;;;;;;;;5017836;28;20415;-87
2021/07/03 00:23:32;;;;;;;3.60;2.50;;;;;;;;;;5018526;28;20467;-87
2021/07/03 00:26:00;;;;;;;3.57;2.80;;;;;;;;;;5016908;28;20492;-86
2021/07/03 00:28:27;;;;;;;4.68;2.50;;;;;;;;;;5019337;28;20757;-87
2021/07/03 00:30:54;;;;;;;4.10;2.78;;;;;;;;;;5016511;28;20411;-87
2021/07/03 00:33:20;;;;;;;4.63;2.72;;;;;;;;;;5016519;28;20402;-87
2021/07/03 00:35:47;;;;;;;4.75;2.80;;;;;;;;;;5018997;28;20801;-87
2021/07/03 00:38:14;;;;;;;4.10;2.38;;;;;;;;;;5017039;28;20808;-87
2021/07/03 00:40:41;;;;;;;3.22;2.40;;;;;;;;;;5018413;28;20862;-87
2021/07/03 00:43:09;;;;;;;2.87;2.30;;;;;;;;;;5017934;28;20401;-87
2021/07/03 00:45:36;;;;;;;3.25;2.17;;;;;;;;;;5017521;28;20438;-87
2021/07/03 00:48:03;;;;;;;5.40;2.20;;;;;;;;;;5018636;28;20408;-87
2021/07/03 00:50:30;;;;;;;2.75;2.20;;;;;;;;;;5016585;28;20878;-87
2021/07/03 00:52:57;;;;;;;3.75;2.30;;;;;;;;;;5019446;28;20397;-87
2021/07/03 00:55:26;;;;;;;4.38;2.38;;;;;;;;;;5016020;28;20422;-87
2021/07/03 00:57:53;;;;;;;5.90;2.28;;;;;;;;;;5013500;28;20413;-87
2021/07/03 01:00:22;;;;;;;3.40;2.15;;;;;;;;;;5016425;28;20417;-87
2021/07/03 01:02:49;;;;;;;3.03;2.20;;;;;;;;;;5013053;28;20457;-87
2021/07/03 01:05:16;;;;;;;2.60;2.30;;;;;;;;;;5015057;28;20440;-87
2021/07/03 01:07:43;;;;;;;2.30;2.10;;;;;;;;;;5013625;28;20893;-87
2021/07/03 01:10:18;;;;;;;3.67;2.20;;;;;;;;;;5014978;28;20407;-87
2021/07/03 01:12:45;;;;;;;3.70;2.40;;;;;;;;;;5015699;28;20404;-87
2021/07/03 01:15:13;;;;;;;3.75;2.40;;;;;;;;;;5015205;28;20914;-87
2021/07/03 01:17:41;;;;;;;4.07;2.35;;;;;;;;;;5013746;28;20405;-87
2021/07/03 01:20:09;;;;;;;4.90;2.30;;;;;;;;;;5014703;28;20815;-87
2021/07/03 01:22:38;;;;;;;3.80;2.25;;;;;;;;;;5014460;28;20886;-87
2021/07/03 01:25:06;;;;;;;5.07;2.80;;;;;;;;;;5013745;28;20414;-87
2021/07/03 01:27:33;;;;;;;3.92;2.35;;;;;;;;;;5014470;28;20402;-87
2021/07/03 01:29:59;;;;;;;5.10;2.40;;;;;;;;;;5013066;28;20779;-87
2021/07/03 01:32:26;;;;;;;4.13;2.43;;;;;;;;;;5015355;28;20417;-86
2021/07/03 01:34:53;;;;;;;2.83;2.60;;;;;;;;;;5012551;28;21111;-86
2021/07/03 01:37:20;;;;;;;5.18;2.67;;;;;;;;;;5015645;28;20416;-86
2021/07/03 01:39:49;;;;;;;3.53;2.10;;;;;;;;;;5012437;28;20941;-87
2021/07/03 01:42:15;;;;;;;4.50;2.45;;;;;;;;;;5014933;28;20414;-87
2021/07/03 01:44:44;;;;;;;3.30;2.13;;;;;;;;;;5013325;28;20820;-87
2021/07/03 01:47:11;;;;;;;3.25;2.20;;;;;;;;;;5013778;28;20403;-86
2021/07/03 01:49:39;;;;;;;3.20;2.13;;;;;;;;;;5013576;28;20904;-87
2021/07/03 01:52:06;;;;;;;3.80;2.00;;;;;;;;;;5013517;28;20418;-87
2021/07/03 01:54:34;;;;;;;5.10;2.20;;;;;;;;;;5014171;28;20888;-86
2021/07/03 01:57:03;;;;;;;4.00;1.90;;;;;;;;;;5012715;28;20826;-87
2021/07/03 01:59:31;;;;;;;3.28;2.30;;;;;;;;;;5015061;28;20937;-87
2021/07/03 02:02:01;;;;;;;3.88;1.85;;;;;;;;;;5020711;28;20409;-87
2021/07/03 02:04:28;;;;;;;2.42;1.88;;;;;;;;;;5023740;28;20494;-87
2021/07/03 02:06:55;;;;;;;3.17;2.20;;;;;;;;;;5024517;28;20523;-87
2021/07/03 02:09:22;;;;;;;3.33;2.30;;;;;;;;;;5023801;28;20910;-87
2021/07/03 02:11:49;;;;;;;5.18;2.80;;;;;;;;;;5023561;28;20397;-86
2021/07/03 02:14:17;;;;;;;5.45;2.95;;;;;;;;;;5023961;28;20405;-86
2021/07/03 02:16:44;;;;;;;5.50;2.88;;;;;;;;;;5023955;28;21128;-87
2021/07/03 02:19:11;;;;;;;4.00;3.00;;;;;;;;;;5023558;28;20996;-87
2021/07/03 02:21:38;;;;;;;4.93;3.15;;;;;;;;;;5023462;28;20405;-87
2021/07/03 02:24:06;;;;;;;5.95;2.58;;;;;;;;;;5024118;28;20756;-89
2021/07/03 02:26:32;;;;;;;5.32;2.60;;;;;;;;;;5023440;28;20421;-87
2021/07/03 02:28:59;;;;;;;3.03;2.42;;;;;;;;;;5022524;28;20397;-87
2021/07/03 02:31:28;;;;;;;3.15;2.50;;;;;;;;;;5012555;28;20419;-88
2021/07/03 02:33:54;;;;;;;4.23;2.20;;;;;;;;;;5021109;28;20409;-88
2021/07/03 02:36:21;;;;;;;3.03;2.08;;;;;;;;;;5003853;28;20787;-88
2021/07/03 02:38:48;;;;;;;3.28;2.00;;;;;;;;;;5009239;28;20455;-88
2021/07/03 02:41:15;;;;;;;2.80;1.92;;;;;;;;;;5023595;28;20401;-88
2021/07/03 02:43:42;;;;;;;3.47;1.90;;;;;;;;;;5022861;28;20467;-89
2021/07/03 02:46:09;;;;;;;3.27;1.77;;;;;;;;;;5023169;28;20417;-88
2021/07/03 02:48:37;;;;;;;2.57;1.80;;;;;;;;;;5007172;28;20514;-88
2021/07/03 02:51:04;;;;;;;2.30;1.73;;;;;;;;;;5003497;28;20414;-88
2021/07/03 02:53:31;;;;;;;2.85;1.80;;;;;;;;;;5003167;28;20414;-88
2021/07/03 02:55:59;;;;;;;3.40;1.80;;;;;;;;;;5003491;28;20402;-88
2021/07/03 02:58:26;;;;;;;2.10;1.80;;;;;;;;;;5003276;28;20399;-89
2021/07/03 03:00:53;;;;;;;3.05;2.20;;;;;;;;;;5003667;28;20407;-89
2021/07/03 03:03:20;;;;;;;2.42;1.83;;;;;;;;;;5003475;28;21214;-88
2021/07/03 03:05:48;;;;;;;2.53;1.90;;;;;;;;;;5019981;28;20460;-89
2021/07/03 03:08:15;;;;;;;3.33;2.00;;;;;;;;;;5022545;28;20416;-88
2021/07/03 03:10:42;;;;;;;3.38;2.25;;;;;;;;;;5022598;28;20404;-88
2021/07/03 03:13:09;;;;;;;3.05;2.50;;;;;;;;;;5023154;28;20816;-88
2021/07/03 03:15:36;;;;;;;4.15;2.53;;;;;;;;;;5022519;28;20409;-88
2021/07/03 03:18:03;;;;;;;4.63;2.70;;;;;;;;;;5023014;28;20405;-88
2021/07/03 03:20:29;;;;;;;4.35;2.60;;;;;;;;;;5022086;28;21083;-88
2021/07/03 03:22:57;;;;;;;3.70;2.42;;;;;;;;;;5022712;28;20409;-88
2021/07/03 03:25:24;;;;;;;3.13;2.33;;;;;;;;;;5023259;28;20412;-88
2021/07/03 03:27:51;;;;;;;2.92;2.40;;;;;;;;;;5022800;28;20750;-88
2021/07/03 03:30:19;;;;;;;4.07;2.50;;;;;;;;;;5022621;28;20412;-88
2021/07/03 03:32:45;;;;;;;2.33;2.13;;;;;;;;;;5022498;28;20916;-88
2021/07/03 03:35:13;;;;;;;2.60;2.30;;;;;;;;;;5022646;28;20416;-88
2021/07/03 03:37:40;;;;;;;2.88;2.38;;;;;;;;;;5022345;28;20453;-89
2021/07/03 03:40:09;;;;;;;2.58;2.10;;;;;;;;;;5003718;28;20895;-89
2021/07/03 03:42:36;;;;;;;3.33;2.20;;;;;;;;;;5002282;28;20411;-88
2021/07/03 03:45:04;;;;;;;2.40;2.10;;;;;;;;;;5003072;28;20402;-88
2021/07/03 03:47:31;;;;;;;3.33;2.40;;;;;;;;;;5002404;28;20429;-88
2021/07/03 03:49:58;;;;;;;2.55;2.22;;;;;;;;;;5002802;28;20900;-88
2021/07/03 03:52:24;;;;;;;2.65;1.92;;;;;;;;;;5002630;28;20403;-88
2021/07/03 03:54:51;;;;;;;3.80;2.20;;;;;;;;;;5002396;28;20879;-88
2021/07/03 03:57:22;;;;;;;5.70;2.30;;;;;;;;;;5002928;28;20407;-88
2021/07/03 03:59:50;;;;;;;3.55;2.25;;;;;;;;;;5002648;28;20493;-89
2021/07/03 04:02:16;;;;;;;3.60;2.10;;;;;;;;;;5002023;28;20973;-88
2021/07/03 04:04:44;;;;;;;3.60;2.30;;;;;;;;;;5006395;28;20617;-88
2021/07/03 04:07:11;;;;;;;3.42;2.20;;;;;;;;;;5017681;28;20933;-89
2021/07/03 04:09:38;;;;;;;3.17;2.10;;;;;;;;;;5010630;28;20946;-89
2021/07/03 04:12:05;;;;;;;4.63;2.40;;;;;;;;;;5012499;28;20401;-88
2021/07/03 04:14:33;;;;;;;3.53;2.37;;;;;;;;;;5010342;28;20752;-88
2021/07/03 04:17:00;;;;;;;5.57;2.65;;;;;;;;;;5013458;28;20413;-89
2021/07/03 04:19:27;;;;;;;4.80;2.33;;;;;;;;;;5009431;28;20760;-89
2021/07/03 04:21:53;;;;;;;4.72;2.47;;;;;;;;;;5009694;28;20414;-88
2021/07/03 04:24:20;;;;;;;2.70;2.13;;;;;;;;;;5012342;28;20406;-89
2021/07/03 04:26:47;;;;;;;2.40;1.80;;;;;;;;;;5010764;28;20433;-88
2021/07/03 04:29:14;;;;;;;3.42;1.70;;;;;;;;;;5011971;28;20407;-88
2021/07/03 04:31:42;;;;;;;1.93;1.83;;;;;;;;;;5011438;28;20409;-88
2021/07/03 04:34:09;;;;;;;2.00;1.80;;;;;;;;;;5014853;28;20402;-88
2021/07/03 04:36:36;;;;;;;3.03;1.88;;;;;;;;;;5015147;28;20889;-88
2021/07/03 04:39:04;;;;;;;2.30;1.83;;;;;;;;;;5015349;28;20953;-89
2021/07/03 04:41:31;;;;;;;3.20;2.00;;;;;;;;;;5016618;28;20405;-88
2021/07/03 04:43:58;;;;;;;3.77;2.10;;;;;;;;;;5012960;28;20510;-88
2021/07/03 04:46:25;;;;;;;2.95;2.15;;;;;;;;;;5016950;28;20807;-88
2021/07/03 04:48:53;;;;;;;3.65;1.90;;;;;;;;;;5013282;28;20410;-88
2021/07/03 04:51:20;;;;;;;4.10;2.35;;;;;;;;;;5015978;28;20775;-88
2021/07/03 04:53:47;;;;;;;2.20;2.00;;;;;;;;;;5014172;28;20405;-88
2021/07/03 04:56:14;;;;;;;4.60;2.00;;;;;;;;;;5014748;28;20744;-88
2021/07/03 04:58:40;;;;;;;3.70;2.00;;;;;;;;;;5014806;28;20405;-88
2021/07/03 05:01:07;;;;;;;3.53;1.88;;;;;;;;;;5014374;28;20527;-88
2021/07/03 05:03:34;;;;;;;3.38;1.63;;;;;;;;;;4990928;28;20437;-88
2021/07/03 05:06:02;;;;;;;2.70;1.75;;;;;;;;;;4985287;28;20412;-88
2021/07/03 05:08:29;;;;;;;3.30;1.90;;;;;;;;;;4984835;28;20400;-88
2021/07/03 05:10:56;;;;;;;3.28;1.90;;;;;;;;;;4985574;28;20428;-88
2021/07/03 05:13:23;;;;;;;2.63;1.60;;;;;;;;;;4985578;28;20408;-88
2021/07/03 05:15:50;;;;;;;2.75;1.70;;;;;;;;;;4984569;28;20425;-88
2021/07/03 05:18:17;;;;;;;3.45;1.65;;;;;;;;;;4984894;28;20416;-88
2021/07/03 05:20:43;;;;;;;2.83;1.70;;;;;;;;;;4984803;28;20761;-89
2021/07/03 05:23:12;;;;;;;2.88;1.58;;;;;;;;;;4985340;28;20405;-88
2021/07/03 05:25:41;;;;;;;2.95;1.42;;;;;;;;;;4984650;28;20405;-88
2021/07/03 05:28:08;;;;;;;5.68;1.60;;;;;;;;;;4984865;28;20429;-88
2021/07/03 05:30:35;;;;;;;2.25;1.30;;;;;;;;;;4984203;28;20417;-88
2021/07/03 05:33:02;;;;;;;2.80;1.25;;;;;;;;;;4985011;28;20450;-88
2021/07/03 05:35:29;;;;;;;1.38;1.10;;;;;;;;;;4984381;28;20413;-88
2021/07/03 05:37:56;;;;;;;1.50;1.10;;;;;;;;;;4980223;28;20784;-89
2021/07/03 05:40:24;;;;;;;2.38;1.10;;;;;;;;;;4984460;28;20408;-88
2021/07/03 05:42:51;;;;;;;3.65;1.58;;;;;;;;;;4984489;28;20405;-89
2021/07/03 05:45:18;;;;;;;2.10;1.30;;;;;;;;;;4983720;28;20412;-88
2021/07/03 05:47:51;;;;;;;1.92;1.23;;;;;;;;;;4984815;28;20433;-89
2021/07/03 05:50:18;;;;;;;2.72;1.45;;;;;;;;;;4984370;28;20428;-88
2021/07/03 05:52:45;;;;;;;2.40;1.20;;;;;;;;;;4984365;28;20491;-88
2021/07/03 05:55:13;;;;;;;2.43;1.50;;;;;;;;;;4984188;28;20416;-87
2021/07/03 05:57:41;;;;;;;2.50;1.10;;;;;;;;;;4983889;28;20873;-88
2021/07/03 06:00:10;;;;;;;1.35;1.20;;;;;;;;;;4984158;28;20462;-88
2021/07/03 06:02:37;;;;;;;3.20;1.10;;;;;;;;;;4983977;28;20408;-88
2021/07/03 06:05:05;;;;;;;1.27;1.03;;;;;;;;;;4983678;28;20412;-89
2021/07/03 06:07:32;;;;;;;1.20;0.93;;;;;;;;;;4983805;28;20433;-89
2021/07/03 06:09:59;;;;;;;1.25;1.00;;;;;;;;;;4983844;28;20456;-88
2021/07/03 06:12:26;;;;;;;3.03;0.90;;;;;;;;;;4979816;28;20773;-88
2021/07/03 06:14:54;;;;;;;3.97;0.90;;;;;;;;;;4984205;28;20476;-88
2021/07/03 06:17:21;;;;;;;4.70;1.30;;;;;;;;;;4983861;28;20957;-88
2021/07/03 06:19:48;;;;;;;3.50;1.30;;;;;;;;;;4983595;28;20408;-88
2021/07/03 06:22:15;;;;;;;1.58;1.10;;;;;;;;;;4984039;28;20412;-88
2021/07/03 06:24:43;;;;;;;1.70;1.00;;;;;;;;;;4983135;28;20416;-87
2021/07/03 06:27:10;;;;;;;1.30;1.10;;;;;;;;;;4983597;28;20495;-88
2021/07/03 06:29:37;;;;;;;1.63;1.00;;;;;;;;;;4983347;28;20416;-89
2021/07/03 06:32:07;;;;;;;1.75;1.10;;;;;;;;;;4983795;28;20783;-88
2021/07/03 06:34:35;;;;;;;2.85;1.10;;;;;;;;;;4982893;28;20420;-88
2021/07/03 06:37:02;;;;;;;4.35;1.27;;;;;;;;;;4983794;28;20511;-88
2021/07/03 06:39:28;;;;;;;4.63;1.23;;;;;;;;;;4979634;28;20408;-88
2021/07/03 06:41:55;;;;;;;2.97;1.00;;;;;;;;;;4983010;28;20928;-89
2021/07/03 06:44:22;;;;;;;2.30;1.20;;;;;;;;;;4983434;28;20442;-89
2021/07/03 06:46:49;;;;;;;3.03;1.10;;;;;;;;;;4982816;28;20425;-89
2021/07/03 06:49:17;;;;;;;3.17;1.17;;;;;;;;;;4983395;28;20408;-88
2021/07/03 06:51:44;;;;;;;4.60;1.15;;;;;;;;;;4982937;28;20409;-89
2021/07/03 06:54:11;;;;;;;2.30;0.90;;;;;;;;;;4983113;28;20813;-88
2021/07/03 06:56:38;;;;;;;2.83;1.00;;;;;;;;;;4981899;28;20404;-89
2021/07/03 06:59:05;;;;;;;2.35;1.20;;;;;;;;;;4983086;28;20412;-89
2021/07/03 07:01:31;;;;;;;1.90;1.40;;;;;;;;;;4983332;28;20753;-88
2021/07/03 07:03:58;;;;;;;1.80;1.02;;;;;;;;;;4998221;23;20757;-88
2021/07/03 07:06:27;;;;;;;1.70;1.10;;;;;;;;;;5022258;28;20424;-89
2021/07/03 07:08:54;;;;;;;2.17;1.15;;;;;;;;;;5015999;28;20441;-89
2021/07/03 07:11:20;;;;;;;2.55;1.00;;;;;;;;;;5012999;28;20401;-89
2021/07/03 07:13:47;;;;;;;1.88;0.80;;;;;;;;;;5020277;28;20417;-88
2021/07/03 07:16:15;;;;;;;2.80;1.00;;;;;;;;;;5015822;28;20404;-89
2021/07/03 07:18:41;;;;;;;2.10;1.10;;;;;;;;;;5014874;28;20420;-89
2021/07/03 07:21:08;;;;;;;1.80;0.95;;;;;;;;;;5014619;28;20412;-90
2021/07/03 07:23:36;;;;;;;1.80;0.95;;;;;;;;;;5019142;28;20780;-88
2021/07/03 07:26:03;;;;;;;2.77;0.90;;;;;;;;;;5000414;28;20493;-89
2021/07/03 07:28:30;;;;;;;1.13;0.93;;;;;;;;;;5008322;28;20426;-89
2021/07/03 07:30:57;;;;;;;2.92;1.00;;;;;;;;;;5016800;28;20801;-89
2021/07/03 07:33:24;;;;;;;2.13;0.90;;;;;;;;;;5012403;28;20395;-89
2021/07/03 07:35:51;;;;;;;1.20;0.88;;;;;;;;;;5012186;28;20419;-89
2021/07/03 07:38:18;;;;;;;2.70;0.90;;;;;;;;;;5002239;28;20407;-89
2021/07/03 07:40:46;;;;;;;4.88;1.30;;;;;;;;;;5010018;28;20433;-89
2021/07/03 07:43:13;;;;;;;3.15;1.10;;;;;;;;;;5008338;28;20417;-87
2021/07/03 07:45:40;;;;;;;1.70;0.87;;;;;;;;;;5012453;28;20949;-89
2021/07/03 07:48:07;;;;;;;1.48;0.80;;;;;;;;;;5014822;28;20429;-89
2021/07/03 07:50:34;;;;;;;0.83;0.80;;;;;;;;;;5012217;28;20791;-89
2021/07/03 07:53:01;;;;;;;1.58;0.82;;;;;;;;;;5008518;28;20411;-88
2021/07/03 07:55:28;;;;;;;2.97;1.08;;;;;;;;;;5011272;28;20894;-90
2021/07/03 07:57:56;;;;;;;1.95;1.00;;;;;;;;;;5015019;28;20436;-90
2021/07/03 08:00:23;;;;;;;2.15;0.93;;;;;;;;;;5012676;28;20411;-89
2021/07/03 08:02:50;;;;;;;4.50;1.00;;;;;;;;;;5012132;28;20419;-90
2021/07/03 08:05:18;;;;;;;4.30;1.15;;;;;;;;;;5017845;28;20419;-88
2021/07/03 08:07:45;;;;;;;2.95;1.33;;;;;;;;;;5034569;28;20427;-90
2021/07/03 08:10:13;;;;;;;2.67;1.17;;;;;;;;;;5047238;28;20763;-89
2021/07/03 08:12:41;;;;;;;1.95;1.17;;;;;;;;;;5046806;28;20407;-89
2021/07/03 08:15:10;;;;;;;1.70;0.83;;;;;;;;;;5046845;28;20407;-90
2021/07/03 08:17:42;;;;;;;2.67;0.90;;;;;;;;;;5046626;28;20414;-89
2021/07/03 08:20:11;;;;;;;2.40;1.10;;;;;;;;;;5047376;28;20399;-89
2021/07/03 08:22:38;;;;;;;2.30;1.30;;;;;;;;;;5046160;28;20458;-89
2021/07/03 08:25:06;;;;;;;2.60;1.13;;;;;;;;;;5046270;28;20399;-90
2021/07/03 08:27:33;;;;;;;2.33;0.90;;;;;;;;;;5046369;28;20408;-90
2021/07/03 08:30:00;;;;;;;2.28;1.02;;;;;;;;;;5047107;28;20430;-89
2021/07/03 08:32:28;;;;;;;2.80;1.00;;;;;;;;;;5046960;28;20407;-89
2021/07/03 08:34:55;;;;;;;2.33;0.90;;;;;;;;;;5046434;28;20446;-88
2021/07/03 08:37:22;;;;;;;1.10;1.00;;;;;;;;;;5046565;28;20443;-89
2021/07/03 08:39:49;;;;;;;3.60;1.30;;;;;;;;;;5046123;28;20415;-88
2021/07/03 08:42:16;;;;;;;1.00;0.90;;;;;;;;;;5046186;28;20472;-89
2021/07/03 08:44:46;;;;;;;3.42;1.02;;;;;;;;;;5045640;28;20489;-90
2021/07/03 08:47:14;;;;;;;1.92;0.80;;;;;;;;;;5037418;28;21017;-89
2021/07/03 08:49:44;;;;;;;1.55;1.05;;;;;;;;;;5035605;28;20413;-89
2021/07/03 08:52:11;;;;;;;4.07;1.42;;;;;;;;;;5038833;28;20400;-90
2021/07/03 08:54:37;;;;;;;1.05;0.93;;;;;;;;;;5041558;28;20407;-89
2021/07/03 08:57:05;;;;;;;2.78;1.00;;;;;;;;;;5038768;28;20735;-90
2021/07/03 08:59:31;;;;;;;3.30;0.90;;;;;;;;;;5039196;28;20416;-89
2021/07/03 09:02:00;;;;;;;2.05;0.90;;;;;;;;;;5042264;28;20407;-90
2021/07/03 09:04:34;;;;;;;1.83;1.00;;;;;;;;;;5035042;28;20416;-90
2021/07/03 09:07:12;;;;;;;2.72;0.90;;;;;;;;;;5027459;28;20418;-90
2021/07/03 09:09:39;;;;;;;3.17;1.20;;;;;;;;;;5019986;28;20406;-90
2021/07/03 09:12:07;;;;;;;1.85;1.10;;;;;;;;;;5018584;28;20432;-90
2021/07/03 09:14:34;;;;;;;2.90;1.05;;;;;;;;;;5018092;28;20399;-89
2021/07/03 09:17:01;;;;;;;1.73;0.90;;;;;;;;;;5026183;28;20896;-90
2021/07/03 09:19:29;;;;;;;2.80;0.90;;;;;;;;;;5033282;28;20460;-90
2021/07/03 09:21:57;;;;;;;1.70;1.00;;;;;;;;;;5038697;28;20794;-90
2021/07/03 09:24:30;;;;;;;2.15;1.00;;;;;;;;;;5023367;28;20397;-89
2021/07/03 09:26:58;;;;;;;1.50;0.97;;;;;;;;;;5020549;28;20414;-90
2021/07/03 09:29:27;;;;;;;3.00;0.90;;;;;;;;;;5036763;28;20785;-89
2021/07/03 09:31:54;;;;;;;1.58;0.80;;;;;;;;;;5035336;28;20418;-89
2021/07/03 09:34:22;;;;;;;3.17;1.13;;;;;;;;;;5039856;28;20810;-90
2021/07/03 09:36:49;;;;;;;1.87;1.00;;;;;;;;;;5037647;28;20922;-90
2021/07/03 09:39:22;;;;;;;1.60;0.90;;;;;;;;;;5035623;28;20414;-90
2021/07/03 09:41:51;;;;;;;2.65;1.20;;;;;;;;;;5035741;28;20444;-89
2021/07/03 09:44:18;;;;;;;1.85;1.00;;;;;;;;;;5035352;28;20749;-89
2021/07/03 09:46:48;;;;;;;1.25;0.80;;;;;;;;;;5037852;28;20395;-89
2021/07/03 09:49:17;;;;;;;1.38;0.90;;;;;;;;;;5034385;28;20428;-90
2021/07/03 09:51:46;;;;;;;1.40;0.90;;;;;;;;;;5033122;28;20814;-90
2021/07/03 09:54:15;;;;;;;2.10;1.08;;;;;;;;;;5035726;28;20415;-89
2021/07/03 09:56:42;;;;;;;1.63;0.90;;;;;;;;;;5038116;28;20508;-90
2021/07/03 09:59:11;;;;;;;1.73;0.73;;;;;;;;;;5038016;28;20416;-89
2021/07/03 10:01:39;;;;;;;3.92;0.70;;;;;;;;;;5036071;28;20882;-89
2021/07/03 10:04:07;;;;;;;1.23;0.80;;;;;;;;;;5033348;28;20414;-90
2021/07/03 10:06:42;;;;;;;1.27;0.85;;;;;;;;;;5033687;28;20428;-89
2021/07/03 10:09:12;;;;;;;1.70;0.90;;;;;;;;;;5026828;28;20421;-90
2021/07/03 10:11:44;;;;;;;1.65;0.80;;;;;;;;;;5042626;28;20396;-90
2021/07/03 10:14:13;;;;;;;0.80;0.70;;;;;;;;;;5044246;28;20412;-89
2021/07/03 10:16:40;;;;;;;0.80;0.50;;;;;;;;;;5044162;28;20850;-89
2021/07/03 10:19:10;;;;;;;1.27;0.70;;;;;;;;;;5044522;28;20408;-90
2021/07/03 10:21:37;;;;;;;1.10;0.70;;;;;;;;;;5044136;28;20416;-90
2021/07/03 10:24:16;;;;;;;1.45;0.98;;;;;;;;;;5044914;28;20414;-90
2021/07/03 10:26:44;;;;;;;2.22;0.88;;;;;;;;;;5038742;28;20759;-89
2021/07/03 10:29:20;;;;;;;1.10;1.00;;;;;;;;;;5032777;28;20412;-89
2021/07/03 10:31:47;;;;;;;1.20;0.80;;;;;;;;;;5044178;28;20441;-90
2021/07/03 10:34:15;;;;;;;3.80;0.80;;;;;;;;;;5044395;28;20797;-89
2021/07/03 10:36:44;;;;;;;0.65;0.65;;;;;;;;;;5044237;28;20416;-89
2021/07/03 10:39:12;;;;;;;0.70;0.70;;;;;;;;;;5044712;28;20757;-88
2021/07/03 10:41:40;;;;;;;2.50;0.90;;;;;;;;;;5044705;28;20424;-90
2021/07/03 10:44:13;;;;;;;1.75;1.13;;;;;;;;;;5044498;28;20933;-89
2021/07/03 10:46:48;;;;;;;1.20;0.90;;;;;;;;;;5044700;28;20408;-89
2021/07/03 10:49:16;;;;;;;2.00;1.00;;;;;;;;;;5044513;28;20447;-90
2021/07/03 10:51:45;;;;;;;1.83;1.20;;;;;;;;;;5044210;28;20414;-88
2021/07/03 10:54:19;;;;;;;2.15;1.20;;;;;;;;;;5044435;28;20418;-90
2021/07/03 10:56:50;;;;;;;2.30;1.35;;;;;;;;;;5044404;28;20403;-90
2021/07/03 10:59:24;;;;;;;4.80;1.20;;;;;;;;;;5044081;28;20423;-89
2021/07/03 11:01:53;;;;;;;2.38;1.20;;;;;;;;;;5044633;28;20423;-89
2021/07/03 11:04:22;;;;;;;2.47;1.15;;;;;;;;;;5043039;28;20407;-90
2021/07/03 11:06:52;;;;;;;2.30;1.17;;;;;;;;;;5043745;28;20403;-89
2021/07/03 11:09:21;;;;;;;1.48;1.10;;;;;;;;;;5043325;28;20412;-89
2021/07/03 11:11:48;;;;;;;1.58;1.10;;;;;;;;;;5043652;28;20399;-89
2021/07/03 11:14:18;;;;;;;1.63;0.98;;;;;;;;;;5043210;28;20415;-89
2021/07/03 11:16:52;;;;;;;1.33;1.10;;;;;;;;;;5044139;28;20408;-90
2021/07/03 11:19:24;;;;;;;2.10;1.00;;;;;;;;;;5043599;28;20461;-89
2021/07/03 11:21:51;;;;;;;2.60;1.30;;;;;;;;;;5043139;28;20495;-90
2021/07/03 11:24:18;;;;;;;1.60;1.10;;;;;;;;;;5043611;28;20415;-90
2021/07/03 11:26:45;;;;;;;3.50;1.20;;;;;;;;;;5044088;28;20411;-91
2021/07/03 11:29:12;;;;;;;2.38;1.08;;;;;;;;;;5044058;28;20707;-90
2021/07/03 11:31:39;;;;;;;1.30;1.05;;;;;;;;;;5044169;28;20403;-91
2021/07/03 11:34:07;;;;;;;1.73;1.10;;;;;;;;;;5043486;28;20427;-88
2021/07/03 11:36:34;;;;;;;1.17;1.08;;;;;;;;;;5043784;28;20404;-90
2021/07/03 11:39:01;;;;;;;1.43;1.10;;;;;;;;;;5043856;28;20400;-89
2021/07/03 11:41:28;;;;;;;1.73;1.00;;;;;;;;;;5042771;28;20425;-89
2021/07/03 11:44:00;;;;;;;2.15;1.23;;;;;;;;;;5043712;28;20416;-89
2021/07/03 11:46:27;;;;;;;1.13;1.00;;;;;;;;;;5043272;28;20413;-89
2021/07/03 11:48:54;;;;;;;4.38;1.30;;;;;;;;;;5043157;28;20416;-89
2021/07/03 11:51:23;;;;;;;1.60;1.07;;;;;;;;;;5043424;28;20439;-89
2021/07/03 11:53:52;;;;;;;1.38;1.20;;;;;;;;;;5043502;28;20893;-89
2021/07/03 11:56:20;;;;;;;3.03;1.40;;;;;;;;;;5045673;28;20430;-89
2021/07/03 11:58:50;;;;;;;2.38;1.48;;;;;;;;;;5051533;28;20569;-90
2021/07/03 12:01:19;;;;;;;3.13;1.37;;;;;;;;;;5067294;28;20400;-89
2021/07/03 12:03:47;;;;;;;2.30;1.20;;;;;;;;;;5067301;28;20512;-89
2021/07/03 12:06:20;;;;;;;1.70;1.20;;;;;;;;;;5067390;28;20407;-90
2021/07/03 12:08:49;;;;;;;1.80;1.15;;;;;;;;;;5067591;28;20430;-89
2021/07/03 12:11:20;;;;;;;5.60;1.40;;;;;;;;;;5068081;28;20699;-89
2021/07/03 12:13:48;;;;;;;3.10;1.50;;;;;;;;;;5064344;28;20427;-89
2021/07/03 12:16:17;;;;;;;1.77;1.50;;;;;;;;;;5068180;28;20419;-89
2021/07/03 12:19:00;;;;;;;2.42;1.48;;;;;;;;;;5041326;28;20436;-89
2021/07/03 12:21:30;;;;;;;2.10;1.48;;;;;;;;;;5068017;28;20403;-89
2021/07/03 12:24:01;;;;;;;1.83;1.50;;;;;;;;;;5068077;28;20411;-89
2021/07/03 12:26:29;;;;;;;2.73;1.50;;;;;;;;;;5066746;28;20607;-89
2021/07/03 12:28:58;;;;;;;5.63;1.70;;;;;;;;;;5065978;28;20407;-90
2021/07/03 12:31:28;;;;;;;3.40;1.38;;;;;;;;;;5049216;28;20404;-89
2021/07/03 12:34:06;;;;;;;1.75;1.52;;;;;;;;;;5048223;28;20404;-90
2021/07/03 12:36:35;;;;;;;1.73;1.40;;;;;;;;;;5047832;28;20437;-90
2021/07/03 12:39:07;;;;;;;2.70;1.40;;;;;;;;;;5048418;28;20410;-89
2021/07/03 12:41:34;;;;;;;2.72;1.35;;;;;;;;;;5038291;28;20411;-89
2021/07/03 12:44:01;;;;;;;2.43;1.43;;;;;;;;;;5046315;28;20879;-90
2021/07/03 12:46:32;;;;;;;1.70;1.50;;;;;;;;;;5043399;28;20420;-89
2021/07/03 12:48:59;;;;;;;2.25;1.23;;;;;;;;;;5042570;28;20882;-90
2021/07/03 12:51:30;;;;;;;2.78;1.55;;;;;;;;;;5043030;28;20407;-90
2021/07/03 12:53:59;;;;;;;3.00;1.60;;;;;;;;;;5045189;28;20451;-89
2021/07/03 12:56:28;;;;;;;2.70;1.53;;;;;;;;;;5046023;28;20507;-89
2021/07/03 12:58:59;;;;;;;2.67;1.58;;;;;;;;;;5046101;28;20400;-89
2021/07/03 13:01:31;;;;;;;1.80;1.30;;;;;;;;;;5046313;28;20443;-89
2021/07/03 13:03:58;;;;;;;1.70;1.40;;;;;;;;;;5046050;28;20764;-89
2021/07/03 13:06:26;;;;;;;2.43;1.60;;;;;;;;;;5046549;28;20749;-89
2021/07/03 13:08:54;;;;;;;1.98;1.40;;;;;;;;;;5046493;28;20434;-89
2021/07/03 13:11:21;;;;;;;2.70;1.55;;;;;;;;;;5046326;28;20839;-89
2021/07/03 13:13:50;;;;;;;2.30;1.35;;;;;;;;;;5046059;28;20407;-89
2021/07/03 13:16:17;;;;;;;2.72;1.55;;;;;;;;;;5045922;28;20406;-89
2021/07/03 13:18:44;;;;;;;4.10;1.50;;;;;;;;;;5045896;28;20714;-89
2021/07/03 13:21:11;;;;;;;3.65;1.60;;;;;;;;;;5046415;28;20411;-89
2021/07/03 13:23:38;;;;;;;2.45;1.60;;;;;;;;;;5045923;28;20400;-89
2021/07/03 13:26:07;;;;;;;2.90;1.40;;;;;;;;;;5042044;28;20407;-89
2021/07/03 13:28:35;;;;;;;1.52;1.40;;;;;;;;;;5045725;28;20726;-89
2021/07/03 13:31:05;;;;;;;2.53;1.30;;;;;;;;;;5045718;28;20816;-89
2021/07/03 13:33:32;;;;;;;1.80;1.40;;;;;;;;;;5045755;28;20432;-89
2021/07/03 13:36:00;;;;;;;2.75;1.40;;;;;;;;;;5045113;28;20419;-89
2021/07/03 13:38:27;;;;;;;2.25;1.73;;;;;;;;;;5045676;28;20402;-89
2021/07/03 13:40:54;;;;;;;1.88;1.50;;;;;;;;;;5045657;28;20404;-89
2021/07/03 13:43:21;;;;;;;2.30;1.50;;;;;;;;;;5045690;28;20788;-89
2021/07/03 13:45:48;;;;;;;2.95;1.40;;;;;;;;;;5045521;28;20414;-89
2021/07/03 13:48:16;;;;;;;3.13;1.30;;;;;;;;;;5045388;28;20411;-89
2021/07/03 13:50:44;;;;;;;1.83;1.27;;;;;;;;;;5045048;28;20423;-90
2021/07/03 13:53:11;;;;;;;2.70;1.20;;;;;;;;;;5046266;28;20411;-90
2021/07/03 13:55:38;;;;;;;1.90;1.37;;;;;;;;;;5045746;28;20415;-90
2021/07/03 13:58:05;;;;;;;2.00;1.30;;;;;;;;;;5037537;28;20691;-89
2021/07/03 14:00:32;;;;;;;1.50;1.20;;;;;;;;;;5045431;28;20759;-89
2021/07/03 14:02:59;;;;;;;1.67;1.27;;;;;;;;;;5045300;28;20407;-89
2021/07/03 14:05:28;;;;;;;2.53;1.27;;;;;;;;;;5033854;28;20424;-89
2021/07/03 14:07:54;;;;;;;1.95;1.33;;;;;;;;;;5026651;28;20417;-90
2021/07/03 14:10:22;;;;;;;1.80;1.40;;;;;;;;;;5034489;28;20417;-88
2021/07/03 14:12:49;;;;;;;1.38;1.27;;;;;;;;;;5031263;28;20750;-89
2021/07/03 14:15:16;;;;;;;3.65;1.30;;;;;;;;;;5025055;28;20405;-89
2021/07/03 14:17:43;;;;;;;2.30;1.40;;;;;;;;;;5033326;28;20767;-89
2021/07/03 14:20:12;;;;;;;1.50;1.30;;;;;;;;;;5032599;28;20425;-90
2021/07/03 14:22:40;;;;;;;2.95;1.40;;;;;;;;;;5021686;28;20417;-89
2021/07/03 14:25:09;;;;;;;3.50;1.40;;;;;;;;;;5019382;28;20492;-89
2021/07/03 14:27:36;;;;;;;3.13;1.50;;;;;;;;;;5025333;28;20414;-90
2021/07/03 14:30:04;;;;;;;3.78;1.52;;;;;;;;;;5025330;28;20413;-90
2021/07/03 14:32:31;;;;;;;2.90;1.60;;;;;;;;;;5035307;28;20422;-90
2021/07/03 14:34:58;;;;;;;2.90;1.40;;;;;;;;;;5036391;28;20403;-91
2021/07/03 14:37:25;;;;;;;2.28;1.20;;;;;;;;;;5024251;28;20434;-90
2021/07/03 14:39:53;;;;;;;2.05;1.25;;;;;;;;;;5022963;28;21173;-90
2021/07/03 14:42:20;;;;;;;1.80;1.17;;;;;;;;;;5026578;28;20886;-90
2021/07/03 14:44:47;;;;;;;2.45;1.20;;;;;;;;;;5034825;28;20414;-90
2021/07/03 14:47:18;;;;;;;3.50;1.05;;;;;;;;;;5032579;28;20762;-90